<?xml version="1.0" encoding="UTF-8" standalone="no" ?>
<gpx xmlns="http://www.topografix.com/GPX/1/1" xmlns:xsi="http://www.w3.org/2001/XMLSchema-instance" xsi:schemaLocation="http://www.topografix.com/GPX/1/1 http://www.topografix.com/GPX/1/1/gpx.xsd" version="1.1" creator="VisuGPX - https://www.visugpx.com">
  <metadata>
    <name>Courir dans le parc de Marimont</name>
    <desc><![CDATA[Petit circuit entrainement pédestre parc de Marimont]]></desc>
  </metadata>
  <trk>
    <name><![CDATA[Sequence 1]]></name>
    <trkseg>
      <trkpt lat="50.48052" lon="4.23915">
        <ele>173</ele>
        <time>2014-11-22T09:03:39Z</time>
      </trkpt>
      <trkpt lat="50.48074" lon="4.23924">
        <ele>164</ele>
        <time>2014-11-22T09:04:50Z</time>
      </trkpt>
      <trkpt lat="50.48071" lon="4.23925">
        <ele>163</ele>
        <time>2014-11-22T09:04:51Z</time>
      </trkpt>
      <trkpt lat="50.48055" lon="4.23937">
        <ele>162</ele>
        <time>2014-11-22T09:04:58Z</time>
      </trkpt>
      <trkpt lat="50.48045" lon="4.23955">
        <ele>162</ele>
        <time>2014-11-22T09:05:03Z</time>
      </trkpt>
      <trkpt lat="50.4804" lon="4.23966">
        <ele>162</ele>
        <time>2014-11-22T09:05:09Z</time>
      </trkpt>
      <trkpt lat="50.48033" lon="4.23979">
        <ele>161</ele>
        <time>2014-11-22T09:05:15Z</time>
      </trkpt>
      <trkpt lat="50.48026" lon="4.24002">
        <ele>159</ele>
        <time>2014-11-22T09:05:24Z</time>
      </trkpt>
      <trkpt lat="50.48024" lon="4.24011">
        <ele>159</ele>
        <time>2014-11-22T09:05:27Z</time>
      </trkpt>
      <trkpt lat="50.48018" lon="4.24029">
        <ele>160</ele>
        <time>2014-11-22T09:05:36Z</time>
      </trkpt>
      <trkpt lat="50.48014" lon="4.24036">
        <ele>158</ele>
        <time>2014-11-22T09:05:39Z</time>
      </trkpt>
      <trkpt lat="50.48012" lon="4.24049">
        <ele>161</ele>
        <time>2014-11-22T09:05:45Z</time>
      </trkpt>
      <trkpt lat="50.48004" lon="4.24069">
        <ele>164</ele>
        <time>2014-11-22T09:05:54Z</time>
      </trkpt>
      <trkpt lat="50.47999" lon="4.2408">
        <ele>164</ele>
        <time>2014-11-22T09:05:57Z</time>
      </trkpt>
      <trkpt lat="50.47993" lon="4.24097">
        <ele>159</ele>
        <time>2014-11-22T09:06:06Z</time>
      </trkpt>
      <trkpt lat="50.47983" lon="4.24137">
        <ele>167</ele>
        <time>2014-11-22T09:06:14Z</time>
      </trkpt>
      <trkpt lat="50.47982" lon="4.24138">
        <ele>168</ele>
        <time>2014-11-22T09:06:15Z</time>
      </trkpt>
      <trkpt lat="50.47981" lon="4.24151">
        <ele>171</ele>
        <time>2014-11-22T09:06:22Z</time>
      </trkpt>
      <trkpt lat="50.47979" lon="4.24159">
        <ele>170</ele>
        <time>2014-11-22T09:06:27Z</time>
      </trkpt>
      <trkpt lat="50.47974" lon="4.24164">
        <ele>168</ele>
        <time>2014-11-22T09:06:33Z</time>
      </trkpt>
      <trkpt lat="50.47962" lon="4.24188">
        <ele>161</ele>
        <time>2014-11-22T09:06:43Z</time>
      </trkpt>
      <trkpt lat="50.47957" lon="4.24205">
        <ele>156</ele>
        <time>2014-11-22T09:06:48Z</time>
      </trkpt>
      <trkpt lat="50.47953" lon="4.24218">
        <ele>157</ele>
        <time>2014-11-22T09:06:52Z</time>
      </trkpt>
      <trkpt lat="50.47947" lon="4.24241">
        <ele>156</ele>
        <time>2014-11-22T09:07:00Z</time>
      </trkpt>
      <trkpt lat="50.47945" lon="4.24253">
        <ele>159</ele>
        <time>2014-11-22T09:07:03Z</time>
      </trkpt>
      <trkpt lat="50.47937" lon="4.24278">
        <ele>158</ele>
        <time>2014-11-22T09:07:12Z</time>
      </trkpt>
      <trkpt lat="50.47933" lon="4.24294">
        <ele>158</ele>
        <time>2014-11-22T09:07:18Z</time>
      </trkpt>
      <trkpt lat="50.4793" lon="4.24304">
        <ele>159</ele>
        <time>2014-11-22T09:07:21Z</time>
      </trkpt>
      <trkpt lat="50.47923" lon="4.24332">
        <ele>164</ele>
        <time>2014-11-22T09:07:31Z</time>
      </trkpt>
      <trkpt lat="50.4792" lon="4.24351">
        <ele>168</ele>
        <time>2014-11-22T09:07:38Z</time>
      </trkpt>
      <trkpt lat="50.47914" lon="4.24363">
        <ele>169</ele>
        <time>2014-11-22T09:07:42Z</time>
      </trkpt>
      <trkpt lat="50.47912" lon="4.24373">
        <ele>169</ele>
        <time>2014-11-22T09:07:45Z</time>
      </trkpt>
      <trkpt lat="50.4791" lon="4.24381">
        <ele>165</ele>
        <time>2014-11-22T09:07:51Z</time>
      </trkpt>
      <trkpt lat="50.47898" lon="4.24411">
        <ele>163</ele>
        <time>2014-11-22T09:08:02Z</time>
      </trkpt>
      <trkpt lat="50.47893" lon="4.2442">
        <ele>161</ele>
        <time>2014-11-22T09:08:04Z</time>
      </trkpt>
      <trkpt lat="50.47882" lon="4.2446">
        <ele>160</ele>
        <time>2014-11-22T09:08:14Z</time>
      </trkpt>
      <trkpt lat="50.47881" lon="4.24466">
        <ele>158</ele>
        <time>2014-11-22T09:08:16Z</time>
      </trkpt>
      <trkpt lat="50.47876" lon="4.2448">
        <ele>158</ele>
        <time>2014-11-22T09:08:21Z</time>
      </trkpt>
      <trkpt lat="50.4787" lon="4.24498">
        <ele>158</ele>
        <time>2014-11-22T09:08:27Z</time>
      </trkpt>
      <trkpt lat="50.47866" lon="4.24512">
        <ele>157</ele>
        <time>2014-11-22T09:08:33Z</time>
      </trkpt>
      <trkpt lat="50.47862" lon="4.24527">
        <ele>159</ele>
        <time>2014-11-22T09:08:39Z</time>
      </trkpt>
      <trkpt lat="50.4786" lon="4.24537">
        <ele>160</ele>
        <time>2014-11-22T09:08:45Z</time>
      </trkpt>
      <trkpt lat="50.47858" lon="4.24551">
        <ele>162</ele>
        <time>2014-11-22T09:08:51Z</time>
      </trkpt>
      <trkpt lat="50.47853" lon="4.24558">
        <ele>161</ele>
        <time>2014-11-22T09:08:57Z</time>
      </trkpt>
      <trkpt lat="50.4785" lon="4.24561">
        <ele>156</ele>
        <time>2014-11-22T09:09:03Z</time>
      </trkpt>
      <trkpt lat="50.47845" lon="4.24571">
        <ele>152</ele>
        <time>2014-11-22T09:09:10Z</time>
      </trkpt>
      <trkpt lat="50.47841" lon="4.24582">
        <ele>156</ele>
        <time>2014-11-22T09:09:15Z</time>
      </trkpt>
      <trkpt lat="50.4784" lon="4.24585">
        <ele>157</ele>
        <time>2014-11-22T09:09:21Z</time>
      </trkpt>
      <trkpt lat="50.47828" lon="4.24614">
        <ele>160</ele>
        <time>2014-11-22T09:09:32Z</time>
      </trkpt>
      <trkpt lat="50.47821" lon="4.24635">
        <ele>163</ele>
        <time>2014-11-22T09:09:38Z</time>
      </trkpt>
      <trkpt lat="50.4782" lon="4.24637">
        <ele>162</ele>
        <time>2014-11-22T09:09:39Z</time>
      </trkpt>
      <trkpt lat="50.47804" lon="4.24668">
        <ele>163</ele>
        <time>2014-11-22T09:09:50Z</time>
      </trkpt>
      <trkpt lat="50.47801" lon="4.2467">
        <ele>164</ele>
        <time>2014-11-22T09:09:51Z</time>
      </trkpt>
      <trkpt lat="50.47786" lon="4.24676">
        <ele>168</ele>
        <time>2014-11-22T09:09:57Z</time>
      </trkpt>
      <trkpt lat="50.47773" lon="4.24669">
        <ele>170</ele>
        <time>2014-11-22T09:10:03Z</time>
      </trkpt>
      <trkpt lat="50.47765" lon="4.24661">
        <ele>172</ele>
        <time>2014-11-22T09:10:09Z</time>
      </trkpt>
      <trkpt lat="50.47753" lon="4.24652">
        <ele>166</ele>
        <time>2014-11-22T09:10:17Z</time>
      </trkpt>
      <trkpt lat="50.47735" lon="4.24644">
        <ele>168</ele>
        <time>2014-11-22T09:10:25Z</time>
      </trkpt>
      <trkpt lat="50.47731" lon="4.24642">
        <ele>166</ele>
        <time>2014-11-22T09:10:27Z</time>
      </trkpt>
      <trkpt lat="50.47719" lon="4.24636">
        <ele>170</ele>
        <time>2014-11-22T09:10:33Z</time>
      </trkpt>
      <trkpt lat="50.47697" lon="4.2463">
        <ele>172</ele>
        <time>2014-11-22T09:10:44Z</time>
      </trkpt>
      <trkpt lat="50.47688" lon="4.24631">
        <ele>167</ele>
        <time>2014-11-22T09:10:49Z</time>
      </trkpt>
      <trkpt lat="50.47684" lon="4.24633">
        <ele>167</ele>
        <time>2014-11-22T09:10:51Z</time>
      </trkpt>
      <trkpt lat="50.47678" lon="4.24641">
        <ele>165</ele>
        <time>2014-11-22T09:10:58Z</time>
      </trkpt>
      <trkpt lat="50.47672" lon="4.24647">
        <ele>166</ele>
        <time>2014-11-22T09:11:03Z</time>
      </trkpt>
      <trkpt lat="50.47666" lon="4.24639">
        <ele>165</ele>
        <time>2014-11-22T09:11:10Z</time>
      </trkpt>
      <trkpt lat="50.47664" lon="4.24629">
        <ele>160</ele>
        <time>2014-11-22T09:11:15Z</time>
      </trkpt>
      <trkpt lat="50.47661" lon="4.24619">
        <ele>157</ele>
        <time>2014-11-22T09:11:21Z</time>
      </trkpt>
      <trkpt lat="50.47654" lon="4.24595">
        <ele>160</ele>
        <time>2014-11-22T09:11:30Z</time>
      </trkpt>
      <trkpt lat="50.4765" lon="4.24589">
        <ele>160</ele>
        <time>2014-11-22T09:11:33Z</time>
      </trkpt>
      <trkpt lat="50.47645" lon="4.24576">
        <ele>161</ele>
        <time>2014-11-22T09:11:39Z</time>
      </trkpt>
      <trkpt lat="50.47631" lon="4.24546">
        <ele>165</ele>
        <time>2014-11-22T09:11:50Z</time>
      </trkpt>
      <trkpt lat="50.47627" lon="4.2454">
        <ele>164</ele>
        <time>2014-11-22T09:11:53Z</time>
      </trkpt>
      <trkpt lat="50.47623" lon="4.24533">
        <ele>165</ele>
        <time>2014-11-22T09:11:57Z</time>
      </trkpt>
      <trkpt lat="50.47615" lon="4.24525">
        <ele>164</ele>
        <time>2014-11-22T09:12:03Z</time>
      </trkpt>
      <trkpt lat="50.47608" lon="4.24514">
        <ele>163</ele>
        <time>2014-11-22T09:12:09Z</time>
      </trkpt>
      <trkpt lat="50.47593" lon="4.24479">
        <ele>166</ele>
        <time>2014-11-22T09:12:20Z</time>
      </trkpt>
      <trkpt lat="50.47585" lon="4.24464">
        <ele>165</ele>
        <time>2014-11-22T09:12:25Z</time>
      </trkpt>
      <trkpt lat="50.47583" lon="4.24458">
        <ele>166</ele>
        <time>2014-11-22T09:12:27Z</time>
      </trkpt>
      <trkpt lat="50.47569" lon="4.24432">
        <ele>165</ele>
        <time>2014-11-22T09:12:37Z</time>
      </trkpt>
      <trkpt lat="50.47567" lon="4.24426">
        <ele>165</ele>
        <time>2014-11-22T09:12:39Z</time>
      </trkpt>
      <trkpt lat="50.47559" lon="4.24413">
        <ele>164</ele>
        <time>2014-11-22T09:12:45Z</time>
      </trkpt>
      <trkpt lat="50.47553" lon="4.24401">
        <ele>163</ele>
        <time>2014-11-22T09:12:51Z</time>
      </trkpt>
      <trkpt lat="50.4754" lon="4.24376">
        <ele>161</ele>
        <time>2014-11-22T09:13:02Z</time>
      </trkpt>
      <trkpt lat="50.47531" lon="4.24376">
        <ele>160</ele>
        <time>2014-11-22T09:13:08Z</time>
      </trkpt>
      <trkpt lat="50.47529" lon="4.24379">
        <ele>160</ele>
        <time>2014-11-22T09:13:10Z</time>
      </trkpt>
      <trkpt lat="50.47519" lon="4.24406">
        <ele>161</ele>
        <time>2014-11-22T09:13:20Z</time>
      </trkpt>
      <trkpt lat="50.47515" lon="4.24409">
        <ele>160</ele>
        <time>2014-11-22T09:13:23Z</time>
      </trkpt>
      <trkpt lat="50.47509" lon="4.24418">
        <ele>161</ele>
        <time>2014-11-22T09:13:27Z</time>
      </trkpt>
      <trkpt lat="50.47498" lon="4.24435">
        <ele>165</ele>
        <time>2014-11-22T09:13:33Z</time>
      </trkpt>
      <trkpt lat="50.47489" lon="4.24449">
        <ele>168</ele>
        <time>2014-11-22T09:13:43Z</time>
      </trkpt>
      <trkpt lat="50.47486" lon="4.24453">
        <ele>169</ele>
        <time>2014-11-22T09:13:45Z</time>
      </trkpt>
      <trkpt lat="50.4748" lon="4.24463">
        <ele>165</ele>
        <time>2014-11-22T09:13:51Z</time>
      </trkpt>
      <trkpt lat="50.47468" lon="4.24481">
        <ele>165</ele>
        <time>2014-11-22T09:14:01Z</time>
      </trkpt>
      <trkpt lat="50.47461" lon="4.24488">
        <ele>162</ele>
        <time>2014-11-22T09:14:06Z</time>
      </trkpt>
      <trkpt lat="50.47452" lon="4.245">
        <ele>160</ele>
        <time>2014-11-22T09:14:11Z</time>
      </trkpt>
      <trkpt lat="50.47444" lon="4.24511">
        <ele>162</ele>
        <time>2014-11-22T09:14:17Z</time>
      </trkpt>
      <trkpt lat="50.47434" lon="4.24522">
        <ele>162</ele>
        <time>2014-11-22T09:14:23Z</time>
      </trkpt>
      <trkpt lat="50.47428" lon="4.2453">
        <ele>161</ele>
        <time>2014-11-22T09:14:27Z</time>
      </trkpt>
      <trkpt lat="50.47398" lon="4.24578">
        <ele>164</ele>
        <time>2014-11-22T09:14:38Z</time>
      </trkpt>
      <trkpt lat="50.47396" lon="4.24581">
        <ele>165</ele>
        <time>2014-11-22T09:14:40Z</time>
      </trkpt>
      <trkpt lat="50.47388" lon="4.2459">
        <ele>162</ele>
        <time>2014-11-22T09:14:46Z</time>
      </trkpt>
      <trkpt lat="50.4737" lon="4.24614">
        <ele>169</ele>
        <time>2014-11-22T09:14:56Z</time>
      </trkpt>
      <trkpt lat="50.47368" lon="4.24615">
        <ele>168</ele>
        <time>2014-11-22T09:14:57Z</time>
      </trkpt>
      <trkpt lat="50.47358" lon="4.24631">
        <ele>168</ele>
        <time>2014-11-22T09:15:03Z</time>
      </trkpt>
      <trkpt lat="50.47351" lon="4.24642">
        <ele>163</ele>
        <time>2014-11-22T09:15:09Z</time>
      </trkpt>
      <trkpt lat="50.4734" lon="4.24653">
        <ele>161</ele>
        <time>2014-11-22T09:15:15Z</time>
      </trkpt>
      <trkpt lat="50.47331" lon="4.24659">
        <ele>162</ele>
        <time>2014-11-22T09:15:21Z</time>
      </trkpt>
      <trkpt lat="50.47323" lon="4.24673">
        <ele>159</ele>
        <time>2014-11-22T09:15:27Z</time>
      </trkpt>
      <trkpt lat="50.47311" lon="4.24685">
        <ele>160</ele>
        <time>2014-11-22T09:15:33Z</time>
      </trkpt>
      <trkpt lat="50.47301" lon="4.24689">
        <ele>159</ele>
        <time>2014-11-22T09:15:42Z</time>
      </trkpt>
      <trkpt lat="50.47299" lon="4.24688">
        <ele>157</ele>
        <time>2014-11-22T09:15:45Z</time>
      </trkpt>
      <trkpt lat="50.47297" lon="4.24677">
        <ele>149</ele>
        <time>2014-11-22T09:15:54Z</time>
      </trkpt>
      <trkpt lat="50.47293" lon="4.24673">
        <ele>147</ele>
        <time>2014-11-22T09:15:57Z</time>
      </trkpt>
      <trkpt lat="50.47289" lon="4.24667">
        <ele>141</ele>
        <time>2014-11-22T09:16:03Z</time>
      </trkpt>
      <trkpt lat="50.47287" lon="4.24654">
        <ele>132</ele>
        <time>2014-11-22T09:16:13Z</time>
      </trkpt>
      <trkpt lat="50.47284" lon="4.24646">
        <ele>132</ele>
        <time>2014-11-22T09:16:18Z</time>
      </trkpt>
      <trkpt lat="50.47283" lon="4.24641">
        <ele>132</ele>
        <time>2014-11-22T09:16:21Z</time>
      </trkpt>
      <trkpt lat="50.47283" lon="4.24629">
        <ele>134</ele>
        <time>2014-11-22T09:16:27Z</time>
      </trkpt>
      <trkpt lat="50.47285" lon="4.24611">
        <ele>137</ele>
        <time>2014-11-22T09:16:33Z</time>
      </trkpt>
      <trkpt lat="50.47283" lon="4.2459">
        <ele>137</ele>
        <time>2014-11-22T09:16:39Z</time>
      </trkpt>
      <trkpt lat="50.47283" lon="4.24571">
        <ele>136</ele>
        <time>2014-11-22T09:16:46Z</time>
      </trkpt>
      <trkpt lat="50.47283" lon="4.24554">
        <ele>134</ele>
        <time>2014-11-22T09:16:52Z</time>
      </trkpt>
      <trkpt lat="50.47286" lon="4.24537">
        <ele>131</ele>
        <time>2014-11-22T09:16:59Z</time>
      </trkpt>
      <trkpt lat="50.47291" lon="4.2452">
        <ele>133</ele>
        <time>2014-11-22T09:17:05Z</time>
      </trkpt>
      <trkpt lat="50.47301" lon="4.24501">
        <ele>133</ele>
        <time>2014-11-22T09:17:12Z</time>
      </trkpt>
      <trkpt lat="50.47309" lon="4.24481">
        <ele>136</ele>
        <time>2014-11-22T09:17:19Z</time>
      </trkpt>
      <trkpt lat="50.4731" lon="4.24476">
        <ele>137</ele>
        <time>2014-11-22T09:17:21Z</time>
      </trkpt>
      <trkpt lat="50.47312" lon="4.24463">
        <ele>137</ele>
        <time>2014-11-22T09:17:27Z</time>
      </trkpt>
      <trkpt lat="50.47312" lon="4.24438">
        <ele>141</ele>
        <time>2014-11-22T09:17:36Z</time>
      </trkpt>
      <trkpt lat="50.47314" lon="4.2443">
        <ele>140</ele>
        <time>2014-11-22T09:17:40Z</time>
      </trkpt>
      <trkpt lat="50.47316" lon="4.24421">
        <ele>139</ele>
        <time>2014-11-22T09:17:45Z</time>
      </trkpt>
      <trkpt lat="50.47321" lon="4.24405">
        <ele>137</ele>
        <time>2014-11-22T09:17:53Z</time>
      </trkpt>
      <trkpt lat="50.47322" lon="4.24398">
        <ele>139</ele>
        <time>2014-11-22T09:17:57Z</time>
      </trkpt>
      <trkpt lat="50.4733" lon="4.24382">
        <ele>134</ele>
        <time>2014-11-22T09:18:05Z</time>
      </trkpt>
      <trkpt lat="50.47331" lon="4.24376">
        <ele>134</ele>
        <time>2014-11-22T09:18:09Z</time>
      </trkpt>
      <trkpt lat="50.47336" lon="4.24365">
        <ele>129</ele>
        <time>2014-11-22T09:18:15Z</time>
      </trkpt>
      <trkpt lat="50.47343" lon="4.24352">
        <ele>127</ele>
        <time>2014-11-22T09:18:21Z</time>
      </trkpt>
      <trkpt lat="50.47352" lon="4.24333">
        <ele>125</ele>
        <time>2014-11-22T09:18:27Z</time>
      </trkpt>
      <trkpt lat="50.47364" lon="4.24307">
        <ele>131</ele>
        <time>2014-11-22T09:18:37Z</time>
      </trkpt>
      <trkpt lat="50.47367" lon="4.24294">
        <ele>133</ele>
        <time>2014-11-22T09:18:43Z</time>
      </trkpt>
      <trkpt lat="50.47368" lon="4.24278">
        <ele>132</ele>
        <time>2014-11-22T09:18:49Z</time>
      </trkpt>
      <trkpt lat="50.4737" lon="4.24272">
        <ele>134</ele>
        <time>2014-11-22T09:18:51Z</time>
      </trkpt>
      <trkpt lat="50.47377" lon="4.2425">
        <ele>139</ele>
        <time>2014-11-22T09:19:00Z</time>
      </trkpt>
      <trkpt lat="50.4738" lon="4.24244">
        <ele>138</ele>
        <time>2014-11-22T09:19:03Z</time>
      </trkpt>
      <trkpt lat="50.47386" lon="4.24226">
        <ele>141</ele>
        <time>2014-11-22T09:19:09Z</time>
      </trkpt>
      <trkpt lat="50.47393" lon="4.24199">
        <ele>144</ele>
        <time>2014-11-22T09:19:19Z</time>
      </trkpt>
      <trkpt lat="50.47396" lon="4.24182">
        <ele>146</ele>
        <time>2014-11-22T09:19:26Z</time>
      </trkpt>
      <trkpt lat="50.47397" lon="4.24172">
        <ele>145</ele>
        <time>2014-11-22T09:19:30Z</time>
      </trkpt>
      <trkpt lat="50.47398" lon="4.24161">
        <ele>148</ele>
        <time>2014-11-22T09:19:33Z</time>
      </trkpt>
      <trkpt lat="50.47395" lon="4.24145">
        <ele>147</ele>
        <time>2014-11-22T09:19:39Z</time>
      </trkpt>
      <trkpt lat="50.47393" lon="4.2413">
        <ele>146</ele>
        <time>2014-11-22T09:19:45Z</time>
      </trkpt>
      <trkpt lat="50.47389" lon="4.24109">
        <ele>151</ele>
        <time>2014-11-22T09:19:51Z</time>
      </trkpt>
      <trkpt lat="50.47379" lon="4.2408">
        <ele>153</ele>
        <time>2014-11-22T09:20:01Z</time>
      </trkpt>
      <trkpt lat="50.47376" lon="4.24072">
        <ele>154</ele>
        <time>2014-11-22T09:20:04Z</time>
      </trkpt>
      <trkpt lat="50.47369" lon="4.24056">
        <ele>155</ele>
        <time>2014-11-22T09:20:10Z</time>
      </trkpt>
      <trkpt lat="50.47363" lon="4.24043">
        <ele>155</ele>
        <time>2014-11-22T09:20:15Z</time>
      </trkpt>
      <trkpt lat="50.47354" lon="4.24025">
        <ele>154</ele>
        <time>2014-11-22T09:20:21Z</time>
      </trkpt>
      <trkpt lat="50.47345" lon="4.24004">
        <ele>153</ele>
        <time>2014-11-22T09:20:30Z</time>
      </trkpt>
      <trkpt lat="50.4734" lon="4.23996">
        <ele>153</ele>
        <time>2014-11-22T09:20:33Z</time>
      </trkpt>
      <trkpt lat="50.47329" lon="4.23975">
        <ele>155</ele>
        <time>2014-11-22T09:20:40Z</time>
      </trkpt>
      <trkpt lat="50.47319" lon="4.23956">
        <ele>154</ele>
        <time>2014-11-22T09:20:47Z</time>
      </trkpt>
      <trkpt lat="50.47315" lon="4.23948">
        <ele>153</ele>
        <time>2014-11-22T09:20:51Z</time>
      </trkpt>
      <trkpt lat="50.4731" lon="4.23937">
        <ele>150</ele>
        <time>2014-11-22T09:20:57Z</time>
      </trkpt>
      <trkpt lat="50.47302" lon="4.23924">
        <ele>147</ele>
        <time>2014-11-22T09:21:03Z</time>
      </trkpt>
      <trkpt lat="50.47292" lon="4.23909">
        <ele>146</ele>
        <time>2014-11-22T09:21:09Z</time>
      </trkpt>
      <trkpt lat="50.47284" lon="4.23892">
        <ele>147</ele>
        <time>2014-11-22T09:21:15Z</time>
      </trkpt>
      <trkpt lat="50.47273" lon="4.23875">
        <ele>146</ele>
        <time>2014-11-22T09:21:21Z</time>
      </trkpt>
      <trkpt lat="50.47258" lon="4.23848">
        <ele>145</ele>
        <time>2014-11-22T09:21:30Z</time>
      </trkpt>
      <trkpt lat="50.47247" lon="4.23825">
        <ele>145</ele>
        <time>2014-11-22T09:21:37Z</time>
      </trkpt>
      <trkpt lat="50.47245" lon="4.2382">
        <ele>146</ele>
        <time>2014-11-22T09:21:39Z</time>
      </trkpt>
      <trkpt lat="50.47238" lon="4.23805">
        <ele>148</ele>
        <time>2014-11-22T09:21:45Z</time>
      </trkpt>
      <trkpt lat="50.47228" lon="4.23785">
        <ele>149</ele>
        <time>2014-11-22T09:21:51Z</time>
      </trkpt>
      <trkpt lat="50.47219" lon="4.23765">
        <ele>150</ele>
        <time>2014-11-22T09:21:57Z</time>
      </trkpt>
      <trkpt lat="50.47205" lon="4.23739">
        <ele>152</ele>
        <time>2014-11-22T09:22:06Z</time>
      </trkpt>
      <trkpt lat="50.47201" lon="4.2373">
        <ele>154</ele>
        <time>2014-11-22T09:22:09Z</time>
      </trkpt>
      <trkpt lat="50.47191" lon="4.23713">
        <ele>153</ele>
        <time>2014-11-22T09:22:15Z</time>
      </trkpt>
      <trkpt lat="50.47177" lon="4.23682">
        <ele>153</ele>
        <time>2014-11-22T09:22:26Z</time>
      </trkpt>
      <trkpt lat="50.47177" lon="4.23681">
        <ele>153</ele>
        <time>2014-11-22T09:22:27Z</time>
      </trkpt>
      <trkpt lat="50.47172" lon="4.2367">
        <ele>147</ele>
        <time>2014-11-22T09:22:33Z</time>
      </trkpt>
      <trkpt lat="50.47169" lon="4.23657">
        <ele>142</ele>
        <time>2014-11-22T09:22:39Z</time>
      </trkpt>
      <trkpt lat="50.47156" lon="4.2364">
        <ele>139</ele>
        <time>2014-11-22T09:22:47Z</time>
      </trkpt>
      <trkpt lat="50.47148" lon="4.23632">
        <ele>139</ele>
        <time>2014-11-22T09:22:54Z</time>
      </trkpt>
      <trkpt lat="50.47147" lon="4.23626">
        <ele>138</ele>
        <time>2014-11-22T09:22:57Z</time>
      </trkpt>
      <trkpt lat="50.47143" lon="4.2361">
        <ele>134</ele>
        <time>2014-11-22T09:23:03Z</time>
      </trkpt>
      <trkpt lat="50.47138" lon="4.2359">
        <ele>133</ele>
        <time>2014-11-22T09:23:10Z</time>
      </trkpt>
      <trkpt lat="50.47135" lon="4.23575">
        <ele>133</ele>
        <time>2014-11-22T09:23:15Z</time>
      </trkpt>
      <trkpt lat="50.47139" lon="4.23562">
        <ele>131</ele>
        <time>2014-11-22T09:23:22Z</time>
      </trkpt>
      <trkpt lat="50.4714" lon="4.2355">
        <ele>130</ele>
        <time>2014-11-22T09:23:27Z</time>
      </trkpt>
      <trkpt lat="50.4715" lon="4.23528">
        <ele>137</ele>
        <time>2014-11-22T09:23:38Z</time>
      </trkpt>
      <trkpt lat="50.47157" lon="4.23508">
        <ele>147</ele>
        <time>2014-11-22T09:23:42Z</time>
      </trkpt>
      <trkpt lat="50.47167" lon="4.23488">
        <ele>147</ele>
        <time>2014-11-22T09:23:49Z</time>
      </trkpt>
      <trkpt lat="50.47167" lon="4.23467">
        <ele>144</ele>
        <time>2014-11-22T09:23:56Z</time>
      </trkpt>
      <trkpt lat="50.47164" lon="4.23454">
        <ele>141</ele>
        <time>2014-11-22T09:24:01Z</time>
      </trkpt>
      <trkpt lat="50.47155" lon="4.23439">
        <ele>145</ele>
        <time>2014-11-22T09:24:08Z</time>
      </trkpt>
      <trkpt lat="50.47154" lon="4.23439">
        <ele>143</ele>
        <time>2014-11-22T09:24:09Z</time>
      </trkpt>
      <trkpt lat="50.47141" lon="4.2343">
        <ele>140</ele>
        <time>2014-11-22T09:24:18Z</time>
      </trkpt>
      <trkpt lat="50.47125" lon="4.23425">
        <ele>147</ele>
        <time>2014-11-22T09:24:24Z</time>
      </trkpt>
      <trkpt lat="50.4712" lon="4.2342">
        <ele>147</ele>
        <time>2014-11-22T09:24:27Z</time>
      </trkpt>
      <trkpt lat="50.47096" lon="4.23398">
        <ele>151</ele>
        <time>2014-11-22T09:24:38Z</time>
      </trkpt>
      <trkpt lat="50.47094" lon="4.23394">
        <ele>151</ele>
        <time>2014-11-22T09:24:40Z</time>
      </trkpt>
      <trkpt lat="50.47084" lon="4.2339">
        <ele>146</ele>
        <time>2014-11-22T09:24:46Z</time>
      </trkpt>
      <trkpt lat="50.47075" lon="4.23385">
        <ele>145</ele>
        <time>2014-11-22T09:24:51Z</time>
      </trkpt>
      <trkpt lat="50.47063" lon="4.23378">
        <ele>146</ele>
        <time>2014-11-22T09:24:58Z</time>
      </trkpt>
      <trkpt lat="50.47052" lon="4.23372">
        <ele>150</ele>
        <time>2014-11-22T09:25:03Z</time>
      </trkpt>
      <trkpt lat="50.47033" lon="4.23369">
        <ele>150</ele>
        <time>2014-11-22T09:25:11Z</time>
      </trkpt>
      <trkpt lat="50.47023" lon="4.23369">
        <ele>146</ele>
        <time>2014-11-22T09:25:15Z</time>
      </trkpt>
      <trkpt lat="50.47011" lon="4.23371">
        <ele>147</ele>
        <time>2014-11-22T09:25:21Z</time>
      </trkpt>
      <trkpt lat="50.47" lon="4.23373">
        <ele>149</ele>
        <time>2014-11-22T09:25:27Z</time>
      </trkpt>
      <trkpt lat="50.46985" lon="4.23376">
        <ele>149</ele>
        <time>2014-11-22T09:25:33Z</time>
      </trkpt>
      <trkpt lat="50.46965" lon="4.23371">
        <ele>155</ele>
        <time>2014-11-22T09:25:43Z</time>
      </trkpt>
      <trkpt lat="50.46953" lon="4.23374">
        <ele>153</ele>
        <time>2014-11-22T09:25:50Z</time>
      </trkpt>
      <trkpt lat="50.4695" lon="4.23373">
        <ele>153</ele>
        <time>2014-11-22T09:25:52Z</time>
      </trkpt>
      <trkpt lat="50.46937" lon="4.23374">
        <ele>153</ele>
        <time>2014-11-22T09:26:00Z</time>
      </trkpt>
      <trkpt lat="50.4693" lon="4.2337">
        <ele>154</ele>
        <time>2014-11-22T09:26:04Z</time>
      </trkpt>
      <trkpt lat="50.46918" lon="4.2336">
        <ele>155</ele>
        <time>2014-11-22T09:26:10Z</time>
      </trkpt>
      <trkpt lat="50.46911" lon="4.23348">
        <ele>154</ele>
        <time>2014-11-22T09:26:16Z</time>
      </trkpt>
      <trkpt lat="50.46903" lon="4.23343">
        <ele>143</ele>
        <time>2014-11-22T09:26:22Z</time>
      </trkpt>
      <trkpt lat="50.46897" lon="4.23345">
        <ele>139</ele>
        <time>2014-11-22T09:26:27Z</time>
      </trkpt>
      <trkpt lat="50.4688" lon="4.23335">
        <ele>138</ele>
        <time>2014-11-22T09:26:37Z</time>
      </trkpt>
      <trkpt lat="50.46876" lon="4.23335">
        <ele>136</ele>
        <time>2014-11-22T09:26:40Z</time>
      </trkpt>
      <trkpt lat="50.4686" lon="4.23345">
        <ele>135</ele>
        <time>2014-11-22T09:26:48Z</time>
      </trkpt>
      <trkpt lat="50.46854" lon="4.23343">
        <ele>135</ele>
        <time>2014-11-22T09:26:51Z</time>
      </trkpt>
      <trkpt lat="50.4683" lon="4.23342">
        <ele>141</ele>
        <time>2014-11-22T09:27:00Z</time>
      </trkpt>
      <trkpt lat="50.46821" lon="4.2334">
        <ele>143</ele>
        <time>2014-11-22T09:27:04Z</time>
      </trkpt>
      <trkpt lat="50.46805" lon="4.23345">
        <ele>149</ele>
        <time>2014-11-22T09:27:11Z</time>
      </trkpt>
      <trkpt lat="50.46797" lon="4.23348">
        <ele>150</ele>
        <time>2014-11-22T09:27:15Z</time>
      </trkpt>
      <trkpt lat="50.46785" lon="4.23349">
        <ele>149</ele>
        <time>2014-11-22T09:27:21Z</time>
      </trkpt>
      <trkpt lat="50.46774" lon="4.23351">
        <ele>149</ele>
        <time>2014-11-22T09:27:27Z</time>
      </trkpt>
      <trkpt lat="50.46762" lon="4.23348">
        <ele>152</ele>
        <time>2014-11-22T09:27:33Z</time>
      </trkpt>
      <trkpt lat="50.46753" lon="4.23362">
        <ele>147</ele>
        <time>2014-11-22T09:27:44Z</time>
      </trkpt>
      <trkpt lat="50.46752" lon="4.23362">
        <ele>146</ele>
        <time>2014-11-22T09:27:45Z</time>
      </trkpt>
      <trkpt lat="50.46747" lon="4.23376">
        <ele>139</ele>
        <time>2014-11-22T09:27:51Z</time>
      </trkpt>
      <trkpt lat="50.46748" lon="4.23396">
        <ele>136</ele>
        <time>2014-11-22T09:28:00Z</time>
      </trkpt>
      <trkpt lat="50.46751" lon="4.23401">
        <ele>135</ele>
        <time>2014-11-22T09:28:03Z</time>
      </trkpt>
      <trkpt lat="50.46759" lon="4.23411">
        <ele>124</ele>
        <time>2014-11-22T09:28:11Z</time>
      </trkpt>
      <trkpt lat="50.46764" lon="4.23416">
        <ele>124</ele>
        <time>2014-11-22T09:28:15Z</time>
      </trkpt>
      <trkpt lat="50.46774" lon="4.2343">
        <ele>128</ele>
        <time>2014-11-22T09:28:21Z</time>
      </trkpt>
      <trkpt lat="50.46778" lon="4.23451">
        <ele>135</ele>
        <time>2014-11-22T09:28:27Z</time>
      </trkpt>
      <trkpt lat="50.46796" lon="4.23462">
        <ele>139</ele>
        <time>2014-11-22T09:28:38Z</time>
      </trkpt>
      <trkpt lat="50.46806" lon="4.23467">
        <ele>140</ele>
        <time>2014-11-22T09:28:42Z</time>
      </trkpt>
      <trkpt lat="50.46813" lon="4.23472">
        <ele>140</ele>
        <time>2014-11-22T09:28:45Z</time>
      </trkpt>
      <trkpt lat="50.46826" lon="4.23484">
        <ele>139</ele>
        <time>2014-11-22T09:28:54Z</time>
      </trkpt>
      <trkpt lat="50.46831" lon="4.23492">
        <ele>137</ele>
        <time>2014-11-22T09:28:59Z</time>
      </trkpt>
      <trkpt lat="50.4683" lon="4.23509">
        <ele>139</ele>
        <time>2014-11-22T09:29:04Z</time>
      </trkpt>
      <trkpt lat="50.46837" lon="4.23521">
        <ele>141</ele>
        <time>2014-11-22T09:29:09Z</time>
      </trkpt>
      <trkpt lat="50.46847" lon="4.23532">
        <ele>144</ele>
        <time>2014-11-22T09:29:15Z</time>
      </trkpt>
      <trkpt lat="50.46864" lon="4.23547">
        <ele>144</ele>
        <time>2014-11-22T09:29:24Z</time>
      </trkpt>
      <trkpt lat="50.4687" lon="4.23554">
        <ele>143</ele>
        <time>2014-11-22T09:29:27Z</time>
      </trkpt>
      <trkpt lat="50.46883" lon="4.23569">
        <ele>146</ele>
        <time>2014-11-22T09:29:35Z</time>
      </trkpt>
      <trkpt lat="50.469" lon="4.23585">
        <ele>152</ele>
        <time>2014-11-22T09:29:44Z</time>
      </trkpt>
      <trkpt lat="50.46906" lon="4.23588">
        <ele>151</ele>
        <time>2014-11-22T09:29:48Z</time>
      </trkpt>
      <trkpt lat="50.46911" lon="4.23592">
        <ele>153</ele>
        <time>2014-11-22T09:29:51Z</time>
      </trkpt>
      <trkpt lat="50.46927" lon="4.23591">
        <ele>161</ele>
        <time>2014-11-22T09:29:59Z</time>
      </trkpt>
      <trkpt lat="50.46933" lon="4.23594">
        <ele>164</ele>
        <time>2014-11-22T09:30:04Z</time>
      </trkpt>
      <trkpt lat="50.46938" lon="4.23597">
        <ele>158</ele>
        <time>2014-11-22T09:30:09Z</time>
      </trkpt>
      <trkpt lat="50.46942" lon="4.23595">
        <ele>155</ele>
        <time>2014-11-22T09:30:15Z</time>
      </trkpt>
      <trkpt lat="50.46951" lon="4.23596">
        <ele>149</ele>
        <time>2014-11-22T09:30:21Z</time>
      </trkpt>
      <trkpt lat="50.46954" lon="4.23605">
        <ele>141</ele>
        <time>2014-11-22T09:30:27Z</time>
      </trkpt>
      <trkpt lat="50.46971" lon="4.23613">
        <ele>144</ele>
        <time>2014-11-22T09:30:38Z</time>
      </trkpt>
      <trkpt lat="50.46976" lon="4.23616">
        <ele>145</ele>
        <time>2014-11-22T09:30:41Z</time>
      </trkpt>
      <trkpt lat="50.46986" lon="4.23625">
        <ele>145</ele>
        <time>2014-11-22T09:30:48Z</time>
      </trkpt>
      <trkpt lat="50.46989" lon="4.23626">
        <ele>145</ele>
        <time>2014-11-22T09:30:51Z</time>
      </trkpt>
      <trkpt lat="50.46996" lon="4.23629">
        <ele>144</ele>
        <time>2014-11-22T09:30:57Z</time>
      </trkpt>
      <trkpt lat="50.47014" lon="4.23637">
        <ele>150</ele>
        <time>2014-11-22T09:31:07Z</time>
      </trkpt>
      <trkpt lat="50.47017" lon="4.23637">
        <ele>149</ele>
        <time>2014-11-22T09:31:09Z</time>
      </trkpt>
      <trkpt lat="50.47026" lon="4.23639">
        <ele>153</ele>
        <time>2014-11-22T09:31:15Z</time>
      </trkpt>
      <trkpt lat="50.47033" lon="4.2363">
        <ele>151</ele>
        <time>2014-11-22T09:31:22Z</time>
      </trkpt>
      <trkpt lat="50.47038" lon="4.23628">
        <ele>154</ele>
        <time>2014-11-22T09:31:27Z</time>
      </trkpt>
      <trkpt lat="50.47044" lon="4.23623">
        <ele>153</ele>
        <time>2014-11-22T09:31:33Z</time>
      </trkpt>
      <trkpt lat="50.47054" lon="4.23613">
        <ele>154</ele>
        <time>2014-11-22T09:31:39Z</time>
      </trkpt>
      <trkpt lat="50.47068" lon="4.23594">
        <ele>150</ele>
        <time>2014-11-22T09:31:50Z</time>
      </trkpt>
      <trkpt lat="50.4707" lon="4.23587">
        <ele>151</ele>
        <time>2014-11-22T09:31:54Z</time>
      </trkpt>
      <trkpt lat="50.47073" lon="4.2358">
        <ele>155</ele>
        <time>2014-11-22T09:31:57Z</time>
      </trkpt>
      <trkpt lat="50.47081" lon="4.23564">
        <ele>155</ele>
        <time>2014-11-22T09:32:06Z</time>
      </trkpt>
      <trkpt lat="50.47084" lon="4.23557">
        <ele>154</ele>
        <time>2014-11-22T09:32:12Z</time>
      </trkpt>
      <trkpt lat="50.47094" lon="4.23548">
        <ele>157</ele>
        <time>2014-11-22T09:32:17Z</time>
      </trkpt>
      <trkpt lat="50.4711" lon="4.2354">
        <ele>159</ele>
        <time>2014-11-22T09:32:26Z</time>
      </trkpt>
      <trkpt lat="50.47114" lon="4.23533">
        <ele>161</ele>
        <time>2014-11-22T09:32:30Z</time>
      </trkpt>
      <trkpt lat="50.47117" lon="4.23532">
        <ele>160</ele>
        <time>2014-11-22T09:32:33Z</time>
      </trkpt>
      <trkpt lat="50.47119" lon="4.23524">
        <ele>161</ele>
        <time>2014-11-22T09:32:39Z</time>
      </trkpt>
      <trkpt lat="50.47119" lon="4.23523">
        <ele>162</ele>
        <time>2014-11-22T09:32:45Z</time>
      </trkpt>
      <trkpt lat="50.47123" lon="4.23512">
        <ele>163</ele>
        <time>2014-11-22T09:32:51Z</time>
      </trkpt>
      <trkpt lat="50.47143" lon="4.23497">
        <ele>160</ele>
        <time>2014-11-22T09:33:02Z</time>
      </trkpt>
      <trkpt lat="50.47144" lon="4.23493">
        <ele>160</ele>
        <time>2014-11-22T09:33:04Z</time>
      </trkpt>
      <trkpt lat="50.47152" lon="4.23475">
        <ele>159</ele>
        <time>2014-11-22T09:33:12Z</time>
      </trkpt>
      <trkpt lat="50.47158" lon="4.23469">
        <ele>155</ele>
        <time>2014-11-22T09:33:15Z</time>
      </trkpt>
      <trkpt lat="50.47159" lon="4.23449">
        <ele>151</ele>
        <time>2014-11-22T09:33:25Z</time>
      </trkpt>
      <trkpt lat="50.47156" lon="4.23442">
        <ele>151</ele>
        <time>2014-11-22T09:33:27Z</time>
      </trkpt>
      <trkpt lat="50.47146" lon="4.23432">
        <ele>146</ele>
        <time>2014-11-22T09:33:33Z</time>
      </trkpt>
      <trkpt lat="50.47134" lon="4.23428">
        <ele>143</ele>
        <time>2014-11-22T09:33:40Z</time>
      </trkpt>
      <trkpt lat="50.47126" lon="4.23423">
        <ele>142</ele>
        <time>2014-11-22T09:33:45Z</time>
      </trkpt>
      <trkpt lat="50.471" lon="4.23419">
        <ele>144</ele>
        <time>2014-11-22T09:33:54Z</time>
      </trkpt>
      <trkpt lat="50.47093" lon="4.2341">
        <ele>147</ele>
        <time>2014-11-22T09:33:59Z</time>
      </trkpt>
      <trkpt lat="50.47086" lon="4.23398">
        <ele>143</ele>
        <time>2014-11-22T09:34:05Z</time>
      </trkpt>
      <trkpt lat="50.47064" lon="4.23382">
        <ele>144</ele>
        <time>2014-11-22T09:34:14Z</time>
      </trkpt>
      <trkpt lat="50.47048" lon="4.23374">
        <ele>150</ele>
        <time>2014-11-22T09:34:20Z</time>
      </trkpt>
      <trkpt lat="50.47043" lon="4.23372">
        <ele>150</ele>
        <time>2014-11-22T09:34:22Z</time>
      </trkpt>
      <trkpt lat="50.47033" lon="4.2337">
        <ele>149</ele>
        <time>2014-11-22T09:34:27Z</time>
      </trkpt>
      <trkpt lat="50.47013" lon="4.23367">
        <ele>151</ele>
        <time>2014-11-22T09:34:36Z</time>
      </trkpt>
      <trkpt lat="50.47007" lon="4.23367">
        <ele>153</ele>
        <time>2014-11-22T09:34:39Z</time>
      </trkpt>
      <trkpt lat="50.46994" lon="4.23373">
        <ele>148</ele>
        <time>2014-11-22T09:34:46Z</time>
      </trkpt>
      <trkpt lat="50.46976" lon="4.23374">
        <ele>155</ele>
        <time>2014-11-22T09:34:54Z</time>
      </trkpt>
      <trkpt lat="50.46964" lon="4.23375">
        <ele>151</ele>
        <time>2014-11-22T09:35:00Z</time>
      </trkpt>
      <trkpt lat="50.46955" lon="4.23373">
        <ele>150</ele>
        <time>2014-11-22T09:35:05Z</time>
      </trkpt>
      <trkpt lat="50.46946" lon="4.23368">
        <ele>150</ele>
        <time>2014-11-22T09:35:09Z</time>
      </trkpt>
      <trkpt lat="50.46936" lon="4.2337">
        <ele>142</ele>
        <time>2014-11-22T09:35:17Z</time>
      </trkpt>
      <trkpt lat="50.46931" lon="4.23366">
        <ele>144</ele>
        <time>2014-11-22T09:35:21Z</time>
      </trkpt>
      <trkpt lat="50.46921" lon="4.23354">
        <ele>145</ele>
        <time>2014-11-22T09:35:27Z</time>
      </trkpt>
      <trkpt lat="50.46904" lon="4.23342">
        <ele>139</ele>
        <time>2014-11-22T09:35:36Z</time>
      </trkpt>
      <trkpt lat="50.46887" lon="4.23343">
        <ele>138</ele>
        <time>2014-11-22T09:35:43Z</time>
      </trkpt>
      <trkpt lat="50.46876" lon="4.23341">
        <ele>137</ele>
        <time>2014-11-22T09:35:50Z</time>
      </trkpt>
      <trkpt lat="50.46863" lon="4.23347">
        <ele>140</ele>
        <time>2014-11-22T09:35:56Z</time>
      </trkpt>
      <trkpt lat="50.4686" lon="4.23348">
        <ele>141</ele>
        <time>2014-11-22T09:35:57Z</time>
      </trkpt>
      <trkpt lat="50.46832" lon="4.23353">
        <ele>149</ele>
        <time>2014-11-22T09:36:06Z</time>
      </trkpt>
      <trkpt lat="50.46825" lon="4.23349">
        <ele>150</ele>
        <time>2014-11-22T09:36:09Z</time>
      </trkpt>
      <trkpt lat="50.46813" lon="4.23338">
        <ele>155</ele>
        <time>2014-11-22T09:36:15Z</time>
      </trkpt>
      <trkpt lat="50.46791" lon="4.2335">
        <ele>153</ele>
        <time>2014-11-22T09:36:24Z</time>
      </trkpt>
      <trkpt lat="50.46777" lon="4.23348">
        <ele>153</ele>
        <time>2014-11-22T09:36:32Z</time>
      </trkpt>
      <trkpt lat="50.46772" lon="4.23348">
        <ele>152</ele>
        <time>2014-11-22T09:36:34Z</time>
      </trkpt>
      <trkpt lat="50.46762" lon="4.23351">
        <ele>152</ele>
        <time>2014-11-22T09:36:39Z</time>
      </trkpt>
      <trkpt lat="50.46754" lon="4.2336">
        <ele>151</ele>
        <time>2014-11-22T09:36:45Z</time>
      </trkpt>
      <trkpt lat="50.4675" lon="4.23366">
        <ele>150</ele>
        <time>2014-11-22T09:36:53Z</time>
      </trkpt>
      <trkpt lat="50.46745" lon="4.23372">
        <ele>151</ele>
        <time>2014-11-22T09:36:58Z</time>
      </trkpt>
      <trkpt lat="50.46748" lon="4.23399">
        <ele>157</ele>
        <time>2014-11-22T09:37:05Z</time>
      </trkpt>
      <trkpt lat="50.46752" lon="4.23409">
        <ele>156</ele>
        <time>2014-11-22T09:37:09Z</time>
      </trkpt>
      <trkpt lat="50.46768" lon="4.23427">
        <ele>157</ele>
        <time>2014-11-22T09:37:20Z</time>
      </trkpt>
      <trkpt lat="50.46772" lon="4.23433">
        <ele>159</ele>
        <time>2014-11-22T09:37:24Z</time>
      </trkpt>
      <trkpt lat="50.46776" lon="4.23437">
        <ele>156</ele>
        <time>2014-11-22T09:37:27Z</time>
      </trkpt>
      <trkpt lat="50.46787" lon="4.23444">
        <ele>157</ele>
        <time>2014-11-22T09:37:33Z</time>
      </trkpt>
      <trkpt lat="50.46793" lon="4.23454">
        <ele>152</ele>
        <time>2014-11-22T09:37:39Z</time>
      </trkpt>
      <trkpt lat="50.46798" lon="4.2346">
        <ele>146</ele>
        <time>2014-11-22T09:37:45Z</time>
      </trkpt>
      <trkpt lat="50.46804" lon="4.23478">
        <ele>145</ele>
        <time>2014-11-22T09:37:52Z</time>
      </trkpt>
      <trkpt lat="50.46812" lon="4.23486">
        <ele>144</ele>
        <time>2014-11-22T09:37:57Z</time>
      </trkpt>
      <trkpt lat="50.46818" lon="4.23498">
        <ele>137</ele>
        <time>2014-11-22T09:38:04Z</time>
      </trkpt>
      <trkpt lat="50.46827" lon="4.23504">
        <ele>140</ele>
        <time>2014-11-22T09:38:09Z</time>
      </trkpt>
      <trkpt lat="50.46845" lon="4.23522">
        <ele>146</ele>
        <time>2014-11-22T09:38:19Z</time>
      </trkpt>
      <trkpt lat="50.46853" lon="4.23529">
        <ele>146</ele>
        <time>2014-11-22T09:38:23Z</time>
      </trkpt>
      <trkpt lat="50.46866" lon="4.23538">
        <ele>149</ele>
        <time>2014-11-22T09:38:30Z</time>
      </trkpt>
      <trkpt lat="50.46871" lon="4.23544">
        <ele>148</ele>
        <time>2014-11-22T09:38:33Z</time>
      </trkpt>
      <trkpt lat="50.46882" lon="4.23552">
        <ele>146</ele>
        <time>2014-11-22T09:38:39Z</time>
      </trkpt>
      <trkpt lat="50.46895" lon="4.23569">
        <ele>149</ele>
        <time>2014-11-22T09:38:48Z</time>
      </trkpt>
      <trkpt lat="50.46897" lon="4.23571">
        <ele>146</ele>
        <time>2014-11-22T09:38:51Z</time>
      </trkpt>
      <trkpt lat="50.46907" lon="4.23586">
        <ele>150</ele>
        <time>2014-11-22T09:38:59Z</time>
      </trkpt>
      <trkpt lat="50.4691" lon="4.2359">
        <ele>149</ele>
        <time>2014-11-22T09:39:03Z</time>
      </trkpt>
      <trkpt lat="50.46924" lon="4.23595">
        <ele>160</ele>
        <time>2014-11-22T09:39:11Z</time>
      </trkpt>
      <trkpt lat="50.46928" lon="4.23597">
        <ele>159</ele>
        <time>2014-11-22T09:39:15Z</time>
      </trkpt>
      <trkpt lat="50.46942" lon="4.236">
        <ele>161</ele>
        <time>2014-11-22T09:39:25Z</time>
      </trkpt>
      <trkpt lat="50.46944" lon="4.23602">
        <ele>160</ele>
        <time>2014-11-22T09:39:30Z</time>
      </trkpt>
      <trkpt lat="50.46953" lon="4.23603">
        <ele>163</ele>
        <time>2014-11-22T09:39:35Z</time>
      </trkpt>
      <trkpt lat="50.46954" lon="4.23603">
        <ele>162</ele>
        <time>2014-11-22T09:39:39Z</time>
      </trkpt>
      <trkpt lat="50.46959" lon="4.23608">
        <ele>157</ele>
        <time>2014-11-22T09:39:45Z</time>
      </trkpt>
      <trkpt lat="50.46977" lon="4.23621">
        <ele>154</ele>
        <time>2014-11-22T09:39:56Z</time>
      </trkpt>
      <trkpt lat="50.4698" lon="4.23622">
        <ele>154</ele>
        <time>2014-11-22T09:39:57Z</time>
      </trkpt>
      <trkpt lat="50.46998" lon="4.23631">
        <ele>152</ele>
        <time>2014-11-22T09:40:08Z</time>
      </trkpt>
      <trkpt lat="50.47005" lon="4.23638">
        <ele>151</ele>
        <time>2014-11-22T09:40:14Z</time>
      </trkpt>
      <trkpt lat="50.47007" lon="4.23639">
        <ele>152</ele>
        <time>2014-11-22T09:40:15Z</time>
      </trkpt>
      <trkpt lat="50.47016" lon="4.23645">
        <ele>152</ele>
        <time>2014-11-22T09:40:21Z</time>
      </trkpt>
      <trkpt lat="50.47025" lon="4.23646">
        <ele>156</ele>
        <time>2014-11-22T09:40:27Z</time>
      </trkpt>
      <trkpt lat="50.4703" lon="4.23643">
        <ele>157</ele>
        <time>2014-11-22T09:40:33Z</time>
      </trkpt>
      <trkpt lat="50.47032" lon="4.23634">
        <ele>155</ele>
        <time>2014-11-22T09:40:39Z</time>
      </trkpt>
      <trkpt lat="50.47045" lon="4.23621">
        <ele>151</ele>
        <time>2014-11-22T09:40:49Z</time>
      </trkpt>
      <trkpt lat="50.47052" lon="4.23613">
        <ele>148</ele>
        <time>2014-11-22T09:40:56Z</time>
      </trkpt>
      <trkpt lat="50.47052" lon="4.23611">
        <ele>148</ele>
        <time>2014-11-22T09:40:57Z</time>
      </trkpt>
      <trkpt lat="50.47064" lon="4.23592">
        <ele>152</ele>
        <time>2014-11-22T09:41:06Z</time>
      </trkpt>
      <trkpt lat="50.47067" lon="4.23584">
        <ele>154</ele>
        <time>2014-11-22T09:41:09Z</time>
      </trkpt>
      <trkpt lat="50.47073" lon="4.23577">
        <ele>153</ele>
        <time>2014-11-22T09:41:15Z</time>
      </trkpt>
      <trkpt lat="50.47089" lon="4.23557">
        <ele>156</ele>
        <time>2014-11-22T09:41:26Z</time>
      </trkpt>
      <trkpt lat="50.47094" lon="4.23551">
        <ele>156</ele>
        <time>2014-11-22T09:41:30Z</time>
      </trkpt>
      <trkpt lat="50.47098" lon="4.23545">
        <ele>159</ele>
        <time>2014-11-22T09:41:36Z</time>
      </trkpt>
      <trkpt lat="50.47105" lon="4.2354">
        <ele>160</ele>
        <time>2014-11-22T09:41:42Z</time>
      </trkpt>
      <trkpt lat="50.47108" lon="4.23538">
        <ele>160</ele>
        <time>2014-11-22T09:41:46Z</time>
      </trkpt>
      <trkpt lat="50.47112" lon="4.23542">
        <ele>158</ele>
        <time>2014-11-22T09:41:51Z</time>
      </trkpt>
      <trkpt lat="50.47123" lon="4.23548">
        <ele>153</ele>
        <time>2014-11-22T09:42:00Z</time>
      </trkpt>
      <trkpt lat="50.47124" lon="4.23557">
        <ele>152</ele>
        <time>2014-11-22T09:42:07Z</time>
      </trkpt>
      <trkpt lat="50.47125" lon="4.23564">
        <ele>153</ele>
        <time>2014-11-22T09:42:10Z</time>
      </trkpt>
      <trkpt lat="50.47124" lon="4.23574">
        <ele>151</ele>
        <time>2014-11-22T09:42:15Z</time>
      </trkpt>
      <trkpt lat="50.47128" lon="4.23584">
        <ele>148</ele>
        <time>2014-11-22T09:42:21Z</time>
      </trkpt>
      <trkpt lat="50.47133" lon="4.23594">
        <ele>146</ele>
        <time>2014-11-22T09:42:27Z</time>
      </trkpt>
      <trkpt lat="50.47142" lon="4.23616">
        <ele>145</ele>
        <time>2014-11-22T09:42:36Z</time>
      </trkpt>
      <trkpt lat="50.47144" lon="4.2362">
        <ele>143</ele>
        <time>2014-11-22T09:42:39Z</time>
      </trkpt>
      <trkpt lat="50.47156" lon="4.23634">
        <ele>140</ele>
        <time>2014-11-22T09:42:48Z</time>
      </trkpt>
      <trkpt lat="50.47159" lon="4.2364">
        <ele>141</ele>
        <time>2014-11-22T09:42:51Z</time>
      </trkpt>
      <trkpt lat="50.47172" lon="4.2367">
        <ele>143</ele>
        <time>2014-11-22T09:43:01Z</time>
      </trkpt>
      <trkpt lat="50.47178" lon="4.23683">
        <ele>145</ele>
        <time>2014-11-22T09:43:06Z</time>
      </trkpt>
      <trkpt lat="50.47186" lon="4.23692">
        <ele>146</ele>
        <time>2014-11-22T09:43:09Z</time>
      </trkpt>
      <trkpt lat="50.47193" lon="4.23708">
        <ele>148</ele>
        <time>2014-11-22T09:43:15Z</time>
      </trkpt>
      <trkpt lat="50.47199" lon="4.23722">
        <ele>148</ele>
        <time>2014-11-22T09:43:21Z</time>
      </trkpt>
      <trkpt lat="50.47205" lon="4.23734">
        <ele>145</ele>
        <time>2014-11-22T09:43:27Z</time>
      </trkpt>
      <trkpt lat="50.47219" lon="4.23763">
        <ele>147</ele>
        <time>2014-11-22T09:43:38Z</time>
      </trkpt>
      <trkpt lat="50.47221" lon="4.23765">
        <ele>149</ele>
        <time>2014-11-22T09:43:39Z</time>
      </trkpt>
      <trkpt lat="50.47232" lon="4.23782">
        <ele>151</ele>
        <time>2014-11-22T09:43:46Z</time>
      </trkpt>
      <trkpt lat="50.47238" lon="4.23788">
        <ele>151</ele>
        <time>2014-11-22T09:43:51Z</time>
      </trkpt>
      <trkpt lat="50.47246" lon="4.23805">
        <ele>153</ele>
        <time>2014-11-22T09:43:59Z</time>
      </trkpt>
      <trkpt lat="50.47252" lon="4.23815">
        <ele>152</ele>
        <time>2014-11-22T09:44:03Z</time>
      </trkpt>
      <trkpt lat="50.47265" lon="4.2384">
        <ele>152</ele>
        <time>2014-11-22T09:44:13Z</time>
      </trkpt>
      <trkpt lat="50.47268" lon="4.23844">
        <ele>153</ele>
        <time>2014-11-22T09:44:15Z</time>
      </trkpt>
      <trkpt lat="50.47282" lon="4.23867">
        <ele>157</ele>
        <time>2014-11-22T09:44:24Z</time>
      </trkpt>
      <trkpt lat="50.47286" lon="4.2387">
        <ele>160</ele>
        <time>2014-11-22T09:44:27Z</time>
      </trkpt>
      <trkpt lat="50.47299" lon="4.23898">
        <ele>159</ele>
        <time>2014-11-22T09:44:38Z</time>
      </trkpt>
      <trkpt lat="50.47299" lon="4.23901">
        <ele>158</ele>
        <time>2014-11-22T09:44:39Z</time>
      </trkpt>
      <trkpt lat="50.47307" lon="4.23921">
        <ele>161</ele>
        <time>2014-11-22T09:44:47Z</time>
      </trkpt>
      <trkpt lat="50.47308" lon="4.23928">
        <ele>162</ele>
        <time>2014-11-22T09:44:51Z</time>
      </trkpt>
      <trkpt lat="50.47322" lon="4.23954">
        <ele>156</ele>
        <time>2014-11-22T09:45:00Z</time>
      </trkpt>
      <trkpt lat="50.47325" lon="4.23961">
        <ele>157</ele>
        <time>2014-11-22T09:45:03Z</time>
      </trkpt>
      <trkpt lat="50.47338" lon="4.23982">
        <ele>157</ele>
        <time>2014-11-22T09:45:12Z</time>
      </trkpt>
      <trkpt lat="50.47346" lon="4.24002">
        <ele>157</ele>
        <time>2014-11-22T09:45:20Z</time>
      </trkpt>
      <trkpt lat="50.47347" lon="4.24005">
        <ele>156</ele>
        <time>2014-11-22T09:45:22Z</time>
      </trkpt>
      <trkpt lat="50.47352" lon="4.24015">
        <ele>154</ele>
        <time>2014-11-22T09:45:27Z</time>
      </trkpt>
      <trkpt lat="50.4736" lon="4.24034">
        <ele>155</ele>
        <time>2014-11-22T09:45:35Z</time>
      </trkpt>
      <trkpt lat="50.47362" lon="4.24037">
        <ele>153</ele>
        <time>2014-11-22T09:45:39Z</time>
      </trkpt>
      <trkpt lat="50.47369" lon="4.2405">
        <ele>153</ele>
        <time>2014-11-22T09:45:49Z</time>
      </trkpt>
      <trkpt lat="50.47371" lon="4.24053">
        <ele>153</ele>
        <time>2014-11-22T09:45:51Z</time>
      </trkpt>
      <trkpt lat="50.47377" lon="4.24061">
        <ele>155</ele>
        <time>2014-11-22T09:45:57Z</time>
      </trkpt>
      <trkpt lat="50.47382" lon="4.24071">
        <ele>154</ele>
        <time>2014-11-22T09:46:03Z</time>
      </trkpt>
      <trkpt lat="50.47389" lon="4.24082">
        <ele>153</ele>
        <time>2014-11-22T09:46:09Z</time>
      </trkpt>
      <trkpt lat="50.47391" lon="4.24092">
        <ele>152</ele>
        <time>2014-11-22T09:46:15Z</time>
      </trkpt>
      <trkpt lat="50.47393" lon="4.24099">
        <ele>153</ele>
        <time>2014-11-22T09:46:21Z</time>
      </trkpt>
      <trkpt lat="50.47391" lon="4.24112">
        <ele>146</ele>
        <time>2014-11-22T09:46:27Z</time>
      </trkpt>
      <trkpt lat="50.47386" lon="4.24129">
        <ele>144</ele>
        <time>2014-11-22T09:46:33Z</time>
      </trkpt>
      <trkpt lat="50.47382" lon="4.24161">
        <ele>143</ele>
        <time>2014-11-22T09:46:43Z</time>
      </trkpt>
      <trkpt lat="50.47381" lon="4.24166">
        <ele>143</ele>
        <time>2014-11-22T09:46:45Z</time>
      </trkpt>
      <trkpt lat="50.47372" lon="4.24198">
        <ele>145</ele>
        <time>2014-11-22T09:46:55Z</time>
      </trkpt>
      <trkpt lat="50.4737" lon="4.24203">
        <ele>145</ele>
        <time>2014-11-22T09:46:57Z</time>
      </trkpt>
      <trkpt lat="50.47366" lon="4.24216">
        <ele>148</ele>
        <time>2014-11-22T09:47:03Z</time>
      </trkpt>
      <trkpt lat="50.47361" lon="4.24237">
        <ele>147</ele>
        <time>2014-11-22T09:47:10Z</time>
      </trkpt>
      <trkpt lat="50.47356" lon="4.24259">
        <ele>151</ele>
        <time>2014-11-22T09:47:19Z</time>
      </trkpt>
      <trkpt lat="50.47353" lon="4.24276">
        <ele>152</ele>
        <time>2014-11-22T09:47:25Z</time>
      </trkpt>
      <trkpt lat="50.47353" lon="4.24278">
        <ele>153</ele>
        <time>2014-11-22T09:47:27Z</time>
      </trkpt>
      <trkpt lat="50.47342" lon="4.24314">
        <ele>154</ele>
        <time>2014-11-22T09:47:34Z</time>
      </trkpt>
      <trkpt lat="50.47338" lon="4.24335">
        <ele>156</ele>
        <time>2014-11-22T09:47:39Z</time>
      </trkpt>
      <trkpt lat="50.47333" lon="4.24353">
        <ele>157</ele>
        <time>2014-11-22T09:47:45Z</time>
      </trkpt>
      <trkpt lat="50.47328" lon="4.24372">
        <ele>157</ele>
        <time>2014-11-22T09:47:51Z</time>
      </trkpt>
      <trkpt lat="50.47315" lon="4.24402">
        <ele>166</ele>
        <time>2014-11-22T09:48:02Z</time>
      </trkpt>
      <trkpt lat="50.47312" lon="4.24407">
        <ele>166</ele>
        <time>2014-11-22T09:48:03Z</time>
      </trkpt>
      <trkpt lat="50.47311" lon="4.24422">
        <ele>166</ele>
        <time>2014-11-22T09:48:11Z</time>
      </trkpt>
      <trkpt lat="50.47306" lon="4.24433">
        <ele>167</ele>
        <time>2014-11-22T09:48:17Z</time>
      </trkpt>
      <trkpt lat="50.473" lon="4.2446">
        <ele>165</ele>
        <time>2014-11-22T09:48:26Z</time>
      </trkpt>
      <trkpt lat="50.47293" lon="4.24479">
        <ele>161</ele>
        <time>2014-11-22T09:48:32Z</time>
      </trkpt>
      <trkpt lat="50.47289" lon="4.24489">
        <ele>160</ele>
        <time>2014-11-22T09:48:35Z</time>
      </trkpt>
      <trkpt lat="50.47283" lon="4.24507">
        <ele>161</ele>
        <time>2014-11-22T09:48:39Z</time>
      </trkpt>
      <trkpt lat="50.47279" lon="4.24524">
        <ele>158</ele>
        <time>2014-11-22T09:48:45Z</time>
      </trkpt>
      <trkpt lat="50.47276" lon="4.24538">
        <ele>153</ele>
        <time>2014-11-22T09:48:51Z</time>
      </trkpt>
      <trkpt lat="50.47271" lon="4.24563">
        <ele>151</ele>
        <time>2014-11-22T09:49:02Z</time>
      </trkpt>
      <trkpt lat="50.47268" lon="4.24576">
        <ele>143</ele>
        <time>2014-11-22T09:49:08Z</time>
      </trkpt>
      <trkpt lat="50.47267" lon="4.24578">
        <ele>143</ele>
        <time>2014-11-22T09:49:09Z</time>
      </trkpt>
      <trkpt lat="50.47273" lon="4.24593">
        <ele>142</ele>
        <time>2014-11-22T09:49:15Z</time>
      </trkpt>
      <trkpt lat="50.47271" lon="4.24612">
        <ele>146</ele>
        <time>2014-11-22T09:49:21Z</time>
      </trkpt>
      <trkpt lat="50.47277" lon="4.24637">
        <ele>151</ele>
        <time>2014-11-22T09:49:29Z</time>
      </trkpt>
      <trkpt lat="50.47283" lon="4.24644">
        <ele>153</ele>
        <time>2014-11-22T09:49:35Z</time>
      </trkpt>
      <trkpt lat="50.47285" lon="4.24651">
        <ele>155</ele>
        <time>2014-11-22T09:49:39Z</time>
      </trkpt>
      <trkpt lat="50.47289" lon="4.24663">
        <ele>153</ele>
        <time>2014-11-22T09:49:46Z</time>
      </trkpt>
      <trkpt lat="50.47293" lon="4.24677">
        <ele>153</ele>
        <time>2014-11-22T09:49:51Z</time>
      </trkpt>
      <trkpt lat="50.47304" lon="4.24689">
        <ele>157</ele>
        <time>2014-11-22T09:50:01Z</time>
      </trkpt>
      <trkpt lat="50.47304" lon="4.24688">
        <ele>158</ele>
        <time>2014-11-22T09:50:03Z</time>
      </trkpt>
      <trkpt lat="50.47309" lon="4.24682">
        <ele>153</ele>
        <time>2014-11-22T09:50:10Z</time>
      </trkpt>
      <trkpt lat="50.47314" lon="4.24677">
        <ele>153</ele>
        <time>2014-11-22T09:50:15Z</time>
      </trkpt>
      <trkpt lat="50.4732" lon="4.24674">
        <ele>147</ele>
        <time>2014-11-22T09:50:21Z</time>
      </trkpt>
      <trkpt lat="50.47338" lon="4.24656">
        <ele>145</ele>
        <time>2014-11-22T09:50:32Z</time>
      </trkpt>
      <trkpt lat="50.4734" lon="4.24654">
        <ele>144</ele>
        <time>2014-11-22T09:50:33Z</time>
      </trkpt>
      <trkpt lat="50.47352" lon="4.24629">
        <ele>144</ele>
        <time>2014-11-22T09:50:44Z</time>
      </trkpt>
      <trkpt lat="50.47352" lon="4.24627">
        <ele>145</ele>
        <time>2014-11-22T09:50:45Z</time>
      </trkpt>
      <trkpt lat="50.47365" lon="4.24616">
        <ele>149</ele>
        <time>2014-11-22T09:50:51Z</time>
      </trkpt>
      <trkpt lat="50.47378" lon="4.24598">
        <ele>155</ele>
        <time>2014-11-22T09:50:59Z</time>
      </trkpt>
      <trkpt lat="50.47388" lon="4.24586">
        <ele>158</ele>
        <time>2014-11-22T09:51:06Z</time>
      </trkpt>
      <trkpt lat="50.47396" lon="4.24581">
        <ele>159</ele>
        <time>2014-11-22T09:51:10Z</time>
      </trkpt>
      <trkpt lat="50.47407" lon="4.24567">
        <ele>158</ele>
        <time>2014-11-22T09:51:17Z</time>
      </trkpt>
      <trkpt lat="50.4742" lon="4.24551">
        <ele>161</ele>
        <time>2014-11-22T09:51:25Z</time>
      </trkpt>
      <trkpt lat="50.47421" lon="4.24549">
        <ele>162</ele>
        <time>2014-11-22T09:51:27Z</time>
      </trkpt>
      <trkpt lat="50.47427" lon="4.24539">
        <ele>162</ele>
        <time>2014-11-22T09:51:33Z</time>
      </trkpt>
      <trkpt lat="50.47434" lon="4.24529">
        <ele>160</ele>
        <time>2014-11-22T09:51:40Z</time>
      </trkpt>
      <trkpt lat="50.47438" lon="4.24521">
        <ele>165</ele>
        <time>2014-11-22T09:51:45Z</time>
      </trkpt>
      <trkpt lat="50.47449" lon="4.24509">
        <ele>164</ele>
        <time>2014-11-22T09:51:53Z</time>
      </trkpt>
      <trkpt lat="50.47454" lon="4.24501">
        <ele>162</ele>
        <time>2014-11-22T09:51:57Z</time>
      </trkpt>
      <trkpt lat="50.47462" lon="4.24483">
        <ele>164</ele>
        <time>2014-11-22T09:52:04Z</time>
      </trkpt>
      <trkpt lat="50.47467" lon="4.24473">
        <ele>165</ele>
        <time>2014-11-22T09:52:11Z</time>
      </trkpt>
      <trkpt lat="50.47473" lon="4.24462">
        <ele>161</ele>
        <time>2014-11-22T09:52:17Z</time>
      </trkpt>
      <trkpt lat="50.47476" lon="4.24455">
        <ele>160</ele>
        <time>2014-11-22T09:52:21Z</time>
      </trkpt>
      <trkpt lat="50.47491" lon="4.24439">
        <ele>158</ele>
        <time>2014-11-22T09:52:31Z</time>
      </trkpt>
      <trkpt lat="50.47493" lon="4.24433">
        <ele>155</ele>
        <time>2014-11-22T09:52:34Z</time>
      </trkpt>
      <trkpt lat="50.47498" lon="4.2442">
        <ele>158</ele>
        <time>2014-11-22T09:52:39Z</time>
      </trkpt>
      <trkpt lat="50.47506" lon="4.24404">
        <ele>155</ele>
        <time>2014-11-22T09:52:45Z</time>
      </trkpt>
      <trkpt lat="50.47509" lon="4.24394">
        <ele>152</ele>
        <time>2014-11-22T09:52:51Z</time>
      </trkpt>
      <trkpt lat="50.47513" lon="4.2438">
        <ele>160</ele>
        <time>2014-11-22T09:52:57Z</time>
      </trkpt>
      <trkpt lat="50.47525" lon="4.24371">
        <ele>158</ele>
        <time>2014-11-22T09:53:08Z</time>
      </trkpt>
      <trkpt lat="50.47533" lon="4.24376">
        <ele>157</ele>
        <time>2014-11-22T09:53:12Z</time>
      </trkpt>
      <trkpt lat="50.47543" lon="4.24384">
        <ele>158</ele>
        <time>2014-11-22T09:53:19Z</time>
      </trkpt>
      <trkpt lat="50.47545" lon="4.24387">
        <ele>158</ele>
        <time>2014-11-22T09:53:21Z</time>
      </trkpt>
      <trkpt lat="50.47555" lon="4.24405">
        <ele>160</ele>
        <time>2014-11-22T09:53:27Z</time>
      </trkpt>
      <trkpt lat="50.47564" lon="4.24425">
        <ele>160</ele>
        <time>2014-11-22T09:53:33Z</time>
      </trkpt>
      <trkpt lat="50.47572" lon="4.24439">
        <ele>162</ele>
        <time>2014-11-22T09:53:39Z</time>
      </trkpt>
      <trkpt lat="50.47575" lon="4.24445">
        <ele>163</ele>
        <time>2014-11-22T09:53:45Z</time>
      </trkpt>
      <trkpt lat="50.47576" lon="4.24453">
        <ele>162</ele>
        <time>2014-11-22T09:53:51Z</time>
      </trkpt>
      <trkpt lat="50.47591" lon="4.24474">
        <ele>159</ele>
        <time>2014-11-22T09:54:01Z</time>
      </trkpt>
      <trkpt lat="50.47594" lon="4.24479">
        <ele>158</ele>
        <time>2014-11-22T09:54:03Z</time>
      </trkpt>
      <trkpt lat="50.47605" lon="4.24495">
        <ele>162</ele>
        <time>2014-11-22T09:54:11Z</time>
      </trkpt>
      <trkpt lat="50.47615" lon="4.24517">
        <ele>160</ele>
        <time>2014-11-22T09:54:20Z</time>
      </trkpt>
      <trkpt lat="50.47615" lon="4.24519">
        <ele>164</ele>
        <time>2014-11-22T09:54:21Z</time>
      </trkpt>
      <trkpt lat="50.47626" lon="4.2454">
        <ele>164</ele>
        <time>2014-11-22T09:54:29Z</time>
      </trkpt>
      <trkpt lat="50.4763" lon="4.24549">
        <ele>160</ele>
        <time>2014-11-22T09:54:33Z</time>
      </trkpt>
      <trkpt lat="50.47644" lon="4.24577">
        <ele>160</ele>
        <time>2014-11-22T09:54:44Z</time>
      </trkpt>
      <trkpt lat="50.47655" lon="4.24592">
        <ele>163</ele>
        <time>2014-11-22T09:54:50Z</time>
      </trkpt>
      <trkpt lat="50.47657" lon="4.24594">
        <ele>163</ele>
        <time>2014-11-22T09:54:51Z</time>
      </trkpt>
      <trkpt lat="50.47664" lon="4.24609">
        <ele>165</ele>
        <time>2014-11-22T09:54:57Z</time>
      </trkpt>
      <trkpt lat="50.47666" lon="4.24627">
        <ele>166</ele>
        <time>2014-11-22T09:55:03Z</time>
      </trkpt>
      <trkpt lat="50.47664" lon="4.24642">
        <ele>166</ele>
        <time>2014-11-22T09:55:09Z</time>
      </trkpt>
      <trkpt lat="50.47675" lon="4.24643">
        <ele>166</ele>
        <time>2014-11-22T09:55:15Z</time>
      </trkpt>
      <trkpt lat="50.47691" lon="4.24627">
        <ele>161</ele>
        <time>2014-11-22T09:55:26Z</time>
      </trkpt>
      <trkpt lat="50.47694" lon="4.24628">
        <ele>163</ele>
        <time>2014-11-22T09:55:28Z</time>
      </trkpt>
      <trkpt lat="50.47701" lon="4.24632">
        <ele>159</ele>
        <time>2014-11-22T09:55:33Z</time>
      </trkpt>
      <trkpt lat="50.47713" lon="4.2464">
        <ele>161</ele>
        <time>2014-11-22T09:55:42Z</time>
      </trkpt>
      <trkpt lat="50.47731" lon="4.24645">
        <ele>160</ele>
        <time>2014-11-22T09:55:49Z</time>
      </trkpt>
      <trkpt lat="50.4774" lon="4.24646">
        <ele>163</ele>
        <time>2014-11-22T09:55:52Z</time>
      </trkpt>
      <trkpt lat="50.47753" lon="4.24658">
        <ele>163</ele>
        <time>2014-11-22T09:56:00Z</time>
      </trkpt>
      <trkpt lat="50.4776" lon="4.24663">
        <ele>163</ele>
        <time>2014-11-22T09:56:03Z</time>
      </trkpt>
      <trkpt lat="50.47773" lon="4.24672">
        <ele>165</ele>
        <time>2014-11-22T09:56:09Z</time>
      </trkpt>
      <trkpt lat="50.47784" lon="4.24679">
        <ele>168</ele>
        <time>2014-11-22T09:56:15Z</time>
      </trkpt>
      <trkpt lat="50.47786" lon="4.24676">
        <ele>172</ele>
        <time>2014-11-22T09:56:21Z</time>
      </trkpt>
      <trkpt lat="50.47798" lon="4.24673">
        <ele>169</ele>
        <time>2014-11-22T09:56:27Z</time>
      </trkpt>
      <trkpt lat="50.47806" lon="4.24658">
        <ele>167</ele>
        <time>2014-11-22T09:56:33Z</time>
      </trkpt>
      <trkpt lat="50.47811" lon="4.24651">
        <ele>164</ele>
        <time>2014-11-22T09:56:39Z</time>
      </trkpt>
      <trkpt lat="50.4782" lon="4.24639">
        <ele>163</ele>
        <time>2014-11-22T09:56:45Z</time>
      </trkpt>
      <trkpt lat="50.47831" lon="4.2461">
        <ele>164</ele>
        <time>2014-11-22T09:56:55Z</time>
      </trkpt>
      <trkpt lat="50.47834" lon="4.24604">
        <ele>164</ele>
        <time>2014-11-22T09:56:57Z</time>
      </trkpt>
      <trkpt lat="50.47838" lon="4.24587">
        <ele>162</ele>
        <time>2014-11-22T09:57:03Z</time>
      </trkpt>
      <trkpt lat="50.47844" lon="4.24562">
        <ele>163</ele>
        <time>2014-11-22T09:57:11Z</time>
      </trkpt>
      <trkpt lat="50.4785" lon="4.24544">
        <ele>162</ele>
        <time>2014-11-22T09:57:17Z</time>
      </trkpt>
      <trkpt lat="50.47851" lon="4.24531">
        <ele>162</ele>
        <time>2014-11-22T09:57:21Z</time>
      </trkpt>
      <trkpt lat="50.47857" lon="4.24511">
        <ele>164</ele>
        <time>2014-11-22T09:57:27Z</time>
      </trkpt>
      <trkpt lat="50.47864" lon="4.24496">
        <ele>163</ele>
        <time>2014-11-22T09:57:33Z</time>
      </trkpt>
      <trkpt lat="50.4787" lon="4.24479">
        <ele>161</ele>
        <time>2014-11-22T09:57:39Z</time>
      </trkpt>
      <trkpt lat="50.47879" lon="4.2445">
        <ele>159</ele>
        <time>2014-11-22T09:57:50Z</time>
      </trkpt>
      <trkpt lat="50.47882" lon="4.2444">
        <ele>160</ele>
        <time>2014-11-22T09:57:53Z</time>
      </trkpt>
      <trkpt lat="50.47889" lon="4.24426">
        <ele>162</ele>
        <time>2014-11-22T09:57:58Z</time>
      </trkpt>
      <trkpt lat="50.47902" lon="4.24408">
        <ele>159</ele>
        <time>2014-11-22T09:58:05Z</time>
      </trkpt>
      <trkpt lat="50.47909" lon="4.24382">
        <ele>156</ele>
        <time>2014-11-22T09:58:14Z</time>
      </trkpt>
      <trkpt lat="50.47914" lon="4.24359">
        <ele>164</ele>
        <time>2014-11-22T09:58:20Z</time>
      </trkpt>
      <trkpt lat="50.47919" lon="4.24342">
        <ele>164</ele>
        <time>2014-11-22T09:58:25Z</time>
      </trkpt>
      <trkpt lat="50.47921" lon="4.24337">
        <ele>164</ele>
        <time>2014-11-22T09:58:27Z</time>
      </trkpt>
      <trkpt lat="50.47927" lon="4.24321">
        <ele>163</ele>
        <time>2014-11-22T09:58:33Z</time>
      </trkpt>
      <trkpt lat="50.47932" lon="4.24304">
        <ele>163</ele>
        <time>2014-11-22T09:58:39Z</time>
      </trkpt>
      <trkpt lat="50.47939" lon="4.24278">
        <ele>162</ele>
        <time>2014-11-22T09:58:50Z</time>
      </trkpt>
      <trkpt lat="50.4794" lon="4.24276">
        <ele>162</ele>
        <time>2014-11-22T09:58:51Z</time>
      </trkpt>
      <trkpt lat="50.47946" lon="4.24258">
        <ele>163</ele>
        <time>2014-11-22T09:58:58Z</time>
      </trkpt>
      <trkpt lat="50.4795" lon="4.24246">
        <ele>162</ele>
        <time>2014-11-22T09:59:04Z</time>
      </trkpt>
      <trkpt lat="50.47953" lon="4.24232">
        <ele>165</ele>
        <time>2014-11-22T09:59:09Z</time>
      </trkpt>
      <trkpt lat="50.47957" lon="4.24217">
        <ele>168</ele>
        <time>2014-11-22T09:59:15Z</time>
      </trkpt>
      <trkpt lat="50.47964" lon="4.24206">
        <ele>167</ele>
        <time>2014-11-22T09:59:21Z</time>
      </trkpt>
      <trkpt lat="50.4797" lon="4.24183">
        <ele>167</ele>
        <time>2014-11-22T09:59:30Z</time>
      </trkpt>
      <trkpt lat="50.47973" lon="4.24172">
        <ele>164</ele>
        <time>2014-11-22T09:59:34Z</time>
      </trkpt>
      <trkpt lat="50.47978" lon="4.24156">
        <ele>163</ele>
        <time>2014-11-22T09:59:41Z</time>
      </trkpt>
      <trkpt lat="50.4798" lon="4.24145">
        <ele>162</ele>
        <time>2014-11-22T09:59:45Z</time>
      </trkpt>
      <trkpt lat="50.47986" lon="4.24128">
        <ele>165</ele>
        <time>2014-11-22T09:59:51Z</time>
      </trkpt>
      <trkpt lat="50.47993" lon="4.24109">
        <ele>162</ele>
        <time>2014-11-22T09:59:57Z</time>
      </trkpt>
      <trkpt lat="50.47997" lon="4.24091">
        <ele>162</ele>
        <time>2014-11-22T10:00:03Z</time>
      </trkpt>
      <trkpt lat="50.48003" lon="4.24075">
        <ele>164</ele>
        <time>2014-11-22T10:00:09Z</time>
      </trkpt>
      <trkpt lat="50.4801" lon="4.24055">
        <ele>162</ele>
        <time>2014-11-22T10:00:17Z</time>
      </trkpt>
      <trkpt lat="50.48012" lon="4.24045">
        <ele>160</ele>
        <time>2014-11-22T10:00:21Z</time>
      </trkpt>
      <trkpt lat="50.48019" lon="4.24027">
        <ele>160</ele>
        <time>2014-11-22T10:00:27Z</time>
      </trkpt>
      <trkpt lat="50.48025" lon="4.24011">
        <ele>159</ele>
        <time>2014-11-22T10:00:35Z</time>
      </trkpt>
      <trkpt lat="50.4803" lon="4.24003">
        <ele>161</ele>
        <time>2014-11-22T10:00:39Z</time>
      </trkpt>
      <trkpt lat="50.48036" lon="4.23978">
        <ele>162</ele>
        <time>2014-11-22T10:00:46Z</time>
      </trkpt>
      <trkpt lat="50.48041" lon="4.23956">
        <ele>162</ele>
        <time>2014-11-22T10:00:52Z</time>
      </trkpt>
      <trkpt lat="50.48044" lon="4.2394">
        <ele>161</ele>
        <time>2014-11-22T10:00:57Z</time>
      </trkpt>
      <trkpt lat="50.48055" lon="4.23925">
        <ele>157</ele>
        <time>2014-11-22T10:01:03Z</time>
      </trkpt>
      <trkpt lat="50.48062" lon="4.23912">
        <ele>158</ele>
        <time>2014-11-22T10:01:11Z</time>
      </trkpt>
      <trkpt lat="50.48063" lon="4.23912">
        <ele>158</ele>
        <time>2014-11-22T10:01:15Z</time>
      </trkpt>
      <trkpt lat="50.48066" lon="4.2391">
        <ele>159</ele>
        <time>2014-11-22T10:01:21Z</time>
      </trkpt>
      <trkpt lat="50.48067" lon="4.23908">
        <ele>161</ele>
        <time>2014-11-22T10:01:32Z</time>
      </trkpt>
      <trkpt lat="50.48067" lon="4.23908">
        <ele>161</ele>
        <time>2014-11-22T10:01:35Z</time>
      </trkpt>
      <trkpt lat="50.48066" lon="4.23907">
        <ele>161</ele>
        <time>2014-11-22T10:01:43Z</time>
      </trkpt>
      <trkpt lat="50.48064" lon="4.23907">
        <ele>158</ele>
        <time>2014-11-22T10:01:49Z</time>
      </trkpt>
      <trkpt lat="50.48064" lon="4.23907">
        <ele>157</ele>
        <time>2014-11-22T10:01:51Z</time>
      </trkpt>
      <trkpt lat="50.48063" lon="4.23907">
        <ele>157</ele>
        <time>2014-11-22T10:01:57Z</time>
      </trkpt>
      <trkpt lat="50.48062" lon="4.23907">
        <ele>156</ele>
        <time>2014-11-22T10:02:08Z</time>
      </trkpt>
    </trkseg>
  </trk>
</gpx>